sensor_id;sensor_type;location;lat;lon;timestamp;P1;durP1;ratioP1;P2;durP2;ratioP2
34212;SDS011;20477;51.390;8.102;2022-10-17T00:00:16;11.55;;;4.90;;
34212;SDS011;20477;51.390;8.102;2022-10-17T00:02:43;21.77;;;4.25;;
34212;SDS011;20477;51.390;8.102;2022-10-17T00:05:10;17.55;;;3.90;;
34212;SDS011;20477;51.390;8.102;2022-10-17T00:07:37;6.18;;;3.90;;
34212;SDS011;20477;51.390;8.102;2022-10-17T00:10:07;12.02;;;4.20;;
34212;SDS011;20477;51.390;8.102;2022-10-17T00:12:34;7.05;;;4.03;;
34212;SDS011;20477;51.390;8.102;2022-10-17T00:15:02;7.47;;;4.40;;
34212;SDS011;20477;51.390;8.102;2022-10-17T00:17:30;7.03;;;4.05;;
34212;SDS011;20477;51.390;8.102;2022-10-17T00:19:57;11.43;;;4.65;;
34212;SDS011;20477;51.390;8.102;2022-10-17T00:22:25;9.45;;;4.47;;
34212;SDS011;20477;51.390;8.102;2022-10-17T00:24:52;9.82;;;4.25;;
34212;SDS011;20477;51.390;8.102;2022-10-17T00:27:19;7.20;;;4.45;;
34212;SDS011;20477;51.390;8.102;2022-10-17T00:29:47;8.63;;;4.43;;
34212;SDS011;20477;51.390;8.102;2022-10-17T00:32:15;8.60;;;4.28;;
34212;SDS011;20477;51.390;8.102;2022-10-17T00:34:42;10.52;;;4.65;;
34212;SDS011;20477;51.390;8.102;2022-10-17T00:37:09;11.68;;;4.25;;
34212;SDS011;20477;51.390;8.102;2022-10-17T00:39:36;8.15;;;4.55;;
34212;SDS011;20477;51.390;8.102;2022-10-17T00:42:03;9.90;;;4.03;;
34212;SDS011;20477;51.390;8.102;2022-10-17T00:46:58;7.85;;;4.72;;
34212;SDS011;20477;51.390;8.102;2022-10-17T00:49:35;19.63;;;4.82;;
34212;SDS011;20477;51.390;8.102;2022-10-17T00:52:05;11.40;;;4.10;;
34212;SDS011;20477;51.390;8.102;2022-10-17T00:57:05;4.30;;;3.90;;
34212;SDS011;20477;51.390;8.102;2022-10-17T00:59:33;6.80;;;4.18;;
34212;SDS011;20477;51.390;8.102;2022-10-17T01:02:06;11.80;;;4.57;;
34212;SDS011;20477;51.390;8.102;2022-10-17T01:04:36;7.60;;;4.15;;
34212;SDS011;20477;51.390;8.102;2022-10-17T01:07:05;6.50;;;3.50;;
34212;SDS011;20477;51.390;8.102;2022-10-17T01:09:32;6.22;;;3.88;;
34212;SDS011;20477;51.390;8.102;2022-10-17T01:14:57;13.55;;;4.03;;
34212;SDS011;20477;51.390;8.102;2022-10-17T01:17:44;10.63;;;4.30;;
34212;SDS011;20477;51.390;8.102;2022-10-17T01:31:22;8.40;;;3.53;;
34212;SDS011;20477;51.390;8.102;2022-10-17T01:33:58;7.18;;;3.92;;
34212;SDS011;20477;51.390;8.102;2022-10-17T01:36:39;6.25;;;3.72;;
34212;SDS011;20477;51.390;8.102;2022-10-17T01:39:45;7.45;;;4.20;;
34212;SDS011;20477;51.390;8.102;2022-10-17T01:42:16;18.95;;;3.88;;
34212;SDS011;20477;51.390;8.102;2022-10-17T01:45:02;11.45;;;4.00;;
34212;SDS011;20477;51.390;8.102;2022-10-17T01:47:35;10.40;;;4.05;;
34212;SDS011;20477;51.390;8.102;2022-10-17T01:50:04;6.78;;;3.83;;
34212;SDS011;20477;51.390;8.102;2022-10-17T01:52:47;12.18;;;4.18;;
34212;SDS011;20477;51.390;8.102;2022-10-17T01:55:22;10.02;;;4.28;;
34212;SDS011;20477;51.390;8.102;2022-10-17T01:57:55;7.30;;;3.90;;
34212;SDS011;20477;51.390;8.102;2022-10-17T02:00:25;11.73;;;4.07;;
34212;SDS011;20477;51.390;8.102;2022-10-17T02:02:57;10.02;;;3.97;;
34212;SDS011;20477;51.390;8.102;2022-10-17T02:05:27;5.43;;;4.05;;
34212;SDS011;20477;51.390;8.102;2022-10-17T02:07:57;8.95;;;3.67;;
34212;SDS011;20477;51.390;8.102;2022-10-17T02:10:29;8.98;;;4.10;;
34212;SDS011;20477;51.390;8.102;2022-10-17T02:15:43;13.20;;;4.18;;
34212;SDS011;20477;51.390;8.102;2022-10-17T02:23:28;14.20;;;4.37;;
34212;SDS011;20477;51.390;8.102;2022-10-17T02:26:20;9.88;;;3.42;;
34212;SDS011;20477;51.390;8.102;2022-10-17T02:28:55;9.57;;;3.95;;
34212;SDS011;20477;51.390;8.102;2022-10-17T02:31:37;12.48;;;4.40;;
34212;SDS011;20477;51.390;8.102;2022-10-17T02:34:28;10.25;;;3.70;;
34212;SDS011;20477;51.390;8.102;2022-10-17T02:36:57;6.50;;;4.20;;
34212;SDS011;20477;51.390;8.102;2022-10-17T02:39:25;8.57;;;3.85;;
34212;SDS011;20477;51.390;8.102;2022-10-17T02:41:54;7.57;;;3.65;;
34212;SDS011;20477;51.390;8.102;2022-10-17T02:44:22;11.23;;;4.15;;
34212;SDS011;20477;51.390;8.102;2022-10-17T02:46:51;5.72;;;3.50;;
34212;SDS011;20477;51.390;8.102;2022-10-17T02:49:22;7.85;;;4.32;;
34212;SDS011;20477;51.390;8.102;2022-10-17T02:51:57;9.80;;;3.88;;
34212;SDS011;20477;51.390;8.102;2022-10-17T02:57:00;6.80;;;3.95;;
34212;SDS011;20477;51.390;8.102;2022-10-17T02:59:51;11.32;;;4.32;;
34212;SDS011;20477;51.390;8.102;2022-10-17T03:02:20;11.50;;;3.95;;
34212;SDS011;20477;51.390;8.102;2022-10-17T03:04:47;6.32;;;3.65;;
34212;SDS011;20477;51.390;8.102;2022-10-17T03:07:14;8.80;;;3.97;;
34212;SDS011;20477;51.390;8.102;2022-10-17T03:09:41;7.30;;;3.63;;
34212;SDS011;20477;51.390;8.102;2022-10-17T03:12:08;8.75;;;3.70;;
34212;SDS011;20477;51.390;8.102;2022-10-17T03:14:35;9.13;;;4.47;;
34212;SDS011;20477;51.390;8.102;2022-10-17T03:17:02;8.00;;;4.25;;
34212;SDS011;20477;51.390;8.102;2022-10-17T03:19:28;9.07;;;3.55;;
34212;SDS011;20477;51.390;8.102;2022-10-17T03:21:55;5.28;;;3.67;;
34212;SDS011;20477;51.390;8.102;2022-10-17T03:24:22;7.80;;;4.13;;
34212;SDS011;20477;51.390;8.102;2022-10-17T03:26:49;4.50;;;3.60;;
34212;SDS011;20477;51.390;8.102;2022-10-17T03:29:16;9.15;;;4.18;;
34212;SDS011;20477;51.390;8.102;2022-10-17T03:31:43;10.10;;;3.90;;
34212;SDS011;20477;51.390;8.102;2022-10-17T03:34:09;11.10;;;4.05;;
34212;SDS011;20477;51.390;8.102;2022-10-17T03:36:37;6.57;;;3.90;;
34212;SDS011;20477;51.390;8.102;2022-10-17T03:39:04;7.82;;;3.90;;
34212;SDS011;20477;51.390;8.102;2022-10-17T03:41:31;14.52;;;4.65;;
34212;SDS011;20477;51.390;8.102;2022-10-17T03:43:58;15.13;;;3.60;;
34212;SDS011;20477;51.390;8.102;2022-10-17T03:46:24;7.70;;;4.13;;
34212;SDS011;20477;51.390;8.102;2022-10-17T03:48:52;12.35;;;4.25;;
34212;SDS011;20477;51.390;8.102;2022-10-17T03:51:18;5.97;;;4.38;;
34212;SDS011;20477;51.390;8.102;2022-10-17T03:53:45;7.57;;;3.88;;
34212;SDS011;20477;51.390;8.102;2022-10-17T03:56:13;8.93;;;4.53;;
34212;SDS011;20477;51.390;8.102;2022-10-17T03:58:42;11.88;;;3.67;;
34212;SDS011;20477;51.390;8.102;2022-10-17T04:01:11;9.57;;;4.38;;
34212;SDS011;20477;51.390;8.102;2022-10-17T04:03:39;7.07;;;4.40;;
34212;SDS011;20477;51.390;8.102;2022-10-17T04:06:06;10.85;;;4.15;;
34212;SDS011;20477;51.390;8.102;2022-10-17T04:08:34;7.95;;;4.60;;
34212;SDS011;20477;51.390;8.102;2022-10-17T04:11:01;18.45;;;4.88;;
34212;SDS011;20477;51.390;8.102;2022-10-17T04:13:29;7.20;;;4.05;;
34212;SDS011;20477;51.390;8.102;2022-10-17T04:15:57;6.43;;;3.90;;
34212;SDS011;20477;51.390;8.102;2022-10-17T04:18:25;6.45;;;4.22;;
34212;SDS011;20477;51.390;8.102;2022-10-17T04:20:52;7.43;;;4.43;;
34212;SDS011;20477;51.390;8.102;2022-10-17T04:23:20;9.95;;;4.30;;
34212;SDS011;20477;51.390;8.102;2022-10-17T04:25:47;6.13;;;4.30;;
34212;SDS011;20477;51.390;8.102;2022-10-17T04:28:15;9.00;;;4.25;;
34212;SDS011;20477;51.390;8.102;2022-10-17T04:30:42;8.70;;;4.93;;
34212;SDS011;20477;51.390;8.102;2022-10-17T04:33:10;10.68;;;5.03;;
34212;SDS011;20477;51.390;8.102;2022-10-17T04:35:37;9.32;;;4.78;;
34212;SDS011;20477;51.390;8.102;2022-10-17T04:38:04;9.23;;;4.40;;
34212;SDS011;20477;51.390;8.102;2022-10-17T04:40:31;11.13;;;4.78;;
34212;SDS011;20477;51.390;8.102;2022-10-17T04:42:58;10.02;;;4.40;;
34212;SDS011;20477;51.390;8.102;2022-10-17T04:45:25;9.68;;;5.28;;
34212;SDS011;20477;51.390;8.102;2022-10-17T04:47:52;12.95;;;5.03;;
34212;SDS011;20477;51.390;8.102;2022-10-17T04:50:19;12.13;;;5.38;;
34212;SDS011;20477;51.390;8.102;2022-10-17T04:52:45;8.70;;;5.15;;
34212;SDS011;20477;51.390;8.102;2022-10-17T04:55:12;14.52;;;4.97;;
34212;SDS011;20477;51.390;8.102;2022-10-17T04:57:39;9.13;;;4.80;;
34212;SDS011;20477;51.390;8.102;2022-10-17T05:00:06;11.55;;;4.75;;
34212;SDS011;20477;51.390;8.102;2022-10-17T05:02:39;8.63;;;4.22;;
34212;SDS011;20477;51.390;8.102;2022-10-17T05:05:06;12.13;;;4.78;;
34212;SDS011;20477;51.390;8.102;2022-10-17T05:07:33;16.15;;;4.63;;
34212;SDS011;20477;51.390;8.102;2022-10-17T05:10:00;14.32;;;4.85;;
34212;SDS011;20477;51.390;8.102;2022-10-17T05:12:27;18.17;;;5.22;;
34212;SDS011;20477;51.390;8.102;2022-10-17T05:14:54;10.38;;;4.32;;
34212;SDS011;20477;51.390;8.102;2022-10-17T05:17:21;11.70;;;4.90;;
34212;SDS011;20477;51.390;8.102;2022-10-17T05:19:48;9.95;;;4.38;;
34212;SDS011;20477;51.390;8.102;2022-10-17T05:22:15;9.45;;;4.45;;
34212;SDS011;20477;51.390;8.102;2022-10-17T05:24:41;14.63;;;5.30;;
34212;SDS011;20477;51.390;8.102;2022-10-17T05:27:08;8.70;;;4.53;;
34212;SDS011;20477;51.390;8.102;2022-10-17T05:29:35;6.15;;;4.82;;
34212;SDS011;20477;51.390;8.102;2022-10-17T05:32:02;11.85;;;5.18;;
34212;SDS011;20477;51.390;8.102;2022-10-17T05:34:29;10.70;;;5.13;;
34212;SDS011;20477;51.390;8.102;2022-10-17T05:36:56;11.30;;;4.80;;
34212;SDS011;20477;51.390;8.102;2022-10-17T05:39:23;11.52;;;4.80;;
34212;SDS011;20477;51.390;8.102;2022-10-17T05:41:50;13.48;;;4.43;;
34212;SDS011;20477;51.390;8.102;2022-10-17T05:44:17;10.95;;;4.47;;
34212;SDS011;20477;51.390;8.102;2022-10-17T05:46:46;17.73;;;4.80;;
34212;SDS011;20477;51.390;8.102;2022-10-17T05:49:14;7.95;;;4.82;;
34212;SDS011;20477;51.390;8.102;2022-10-17T05:51:58;6.90;;;5.03;;
34212;SDS011;20477;51.390;8.102;2022-10-17T05:54:25;19.65;;;5.35;;
34212;SDS011;20477;51.390;8.102;2022-10-17T05:56:52;26.05;;;5.55;;
34212;SDS011;20477;51.390;8.102;2022-10-17T05:59:19;19.95;;;4.65;;
34212;SDS011;20477;51.390;8.102;2022-10-17T06:01:46;11.63;;;5.50;;
34212;SDS011;20477;51.390;8.102;2022-10-17T06:04:13;11.70;;;5.40;;
34212;SDS011;20477;51.390;8.102;2022-10-17T06:06:40;8.30;;;4.30;;
34212;SDS011;20477;51.390;8.102;2022-10-17T06:09:07;6.57;;;4.53;;
34212;SDS011;20477;51.390;8.102;2022-10-17T06:11:34;9.98;;;4.63;;
34212;SDS011;20477;51.390;8.102;2022-10-17T06:14:02;14.65;;;5.20;;
34212;SDS011;20477;51.390;8.102;2022-10-17T06:16:29;11.35;;;4.45;;
34212;SDS011;20477;51.390;8.102;2022-10-17T06:18:56;7.50;;;4.32;;
34212;SDS011;20477;51.390;8.102;2022-10-17T06:21:23;15.02;;;5.10;;
34212;SDS011;20477;51.390;8.102;2022-10-17T06:23:51;9.30;;;4.80;;
34212;SDS011;20477;51.390;8.102;2022-10-17T06:26:19;7.32;;;4.53;;
34212;SDS011;20477;51.390;8.102;2022-10-17T06:28:46;8.57;;;4.68;;
34212;SDS011;20477;51.390;8.102;2022-10-17T06:31:14;8.73;;;4.50;;
34212;SDS011;20477;51.390;8.102;2022-10-17T06:33:42;9.65;;;4.78;;
34212;SDS011;20477;51.390;8.102;2022-10-17T06:36:09;5.75;;;4.25;;
34212;SDS011;20477;51.390;8.102;2022-10-17T06:38:37;7.05;;;4.45;;
34212;SDS011;20477;51.390;8.102;2022-10-17T06:41:05;12.63;;;4.13;;
34212;SDS011;20477;51.390;8.102;2022-10-17T06:43:37;15.20;;;4.97;;
34212;SDS011;20477;51.390;8.102;2022-10-17T06:46:04;10.35;;;4.28;;
34212;SDS011;20477;51.390;8.102;2022-10-17T06:48:31;9.32;;;4.63;;
34212;SDS011;20477;51.390;8.102;2022-10-17T06:50:59;12.27;;;4.85;;
34212;SDS011;20477;51.390;8.102;2022-10-17T06:53:27;13.35;;;4.55;;
34212;SDS011;20477;51.390;8.102;2022-10-17T06:55:55;7.78;;;3.70;;
34212;SDS011;20477;51.390;8.102;2022-10-17T06:58:26;8.73;;;4.50;;
34212;SDS011;20477;51.390;8.102;2022-10-17T07:00:57;8.95;;;4.60;;
34212;SDS011;20477;51.390;8.102;2022-10-17T07:03:26;12.25;;;3.50;;
34212;SDS011;20477;51.390;8.102;2022-10-17T07:05:53;9.23;;;4.15;;
34212;SDS011;20477;51.390;8.102;2022-10-17T07:08:21;9.20;;;3.85;;
34212;SDS011;20477;51.390;8.102;2022-10-17T07:10:48;8.55;;;4.25;;
34212;SDS011;20477;51.390;8.102;2022-10-17T07:13:16;14.18;;;3.95;;
34212;SDS011;20477;51.390;8.102;2022-10-17T07:15:43;10.13;;;4.07;;
34212;SDS011;20477;51.390;8.102;2022-10-17T07:18:11;6.40;;;4.00;;
34212;SDS011;20477;51.390;8.102;2022-10-17T07:20:38;10.15;;;3.70;;
34212;SDS011;20477;51.390;8.102;2022-10-17T07:23:05;9.27;;;4.03;;
34212;SDS011;20477;51.390;8.102;2022-10-17T07:25:32;15.38;;;4.18;;
34212;SDS011;20477;51.390;8.102;2022-10-17T07:28:04;7.53;;;3.92;;
34212;SDS011;20477;51.390;8.102;2022-10-17T07:30:31;9.38;;;4.90;;
34212;SDS011;20477;51.390;8.102;2022-10-17T07:32:58;7.68;;;3.92;;
34212;SDS011;20477;51.390;8.102;2022-10-17T07:35:25;8.77;;;3.58;;
34212;SDS011;20477;51.390;8.102;2022-10-17T07:37:52;6.35;;;3.47;;
34212;SDS011;20477;51.390;8.102;2022-10-17T07:40:19;8.63;;;3.53;;
34212;SDS011;20477;51.390;8.102;2022-10-17T07:42:46;6.38;;;3.70;;
34212;SDS011;20477;51.390;8.102;2022-10-17T07:45:12;9.82;;;3.88;;
34212;SDS011;20477;51.390;8.102;2022-10-17T07:47:40;6.03;;;3.67;;
34212;SDS011;20477;51.390;8.102;2022-10-17T07:50:08;11.60;;;3.75;;
34212;SDS011;20477;51.390;8.102;2022-10-17T07:52:35;9.02;;;3.67;;
34212;SDS011;20477;51.390;8.102;2022-10-17T07:55:02;9.10;;;3.55;;
34212;SDS011;20477;51.390;8.102;2022-10-17T07:57:28;4.40;;;2.70;;
34212;SDS011;20477;51.390;8.102;2022-10-17T07:59:55;8.55;;;3.13;;
34212;SDS011;20477;51.390;8.102;2022-10-17T08:02:23;16.90;;;4.10;;
34212;SDS011;20477;51.390;8.102;2022-10-17T08:04:52;11.85;;;3.30;;
34212;SDS011;20477;51.390;8.102;2022-10-17T08:07:19;8.77;;;3.35;;
34212;SDS011;20477;51.390;8.102;2022-10-17T08:09:53;8.48;;;3.63;;
34212;SDS011;20477;51.390;8.102;2022-10-17T08:12:20;12.43;;;3.63;;
34212;SDS011;20477;51.390;8.102;2022-10-17T08:14:47;6.05;;;3.08;;
34212;SDS011;20477;51.390;8.102;2022-10-17T08:17:14;14.95;;;3.55;;
34212;SDS011;20477;51.390;8.102;2022-10-17T08:19:41;8.25;;;3.00;;
34212;SDS011;20477;51.390;8.102;2022-10-17T08:22:08;11.63;;;3.20;;
34212;SDS011;20477;51.390;8.102;2022-10-17T08:24:34;4.60;;;3.00;;
34212;SDS011;20477;51.390;8.102;2022-10-17T08:27:01;6.32;;;2.95;;
34212;SDS011;20477;51.390;8.102;2022-10-17T08:29:30;9.00;;;3.10;;
34212;SDS011;20477;51.390;8.102;2022-10-17T08:31:58;13.68;;;3.00;;
34212;SDS011;20477;51.390;8.102;2022-10-17T08:34:27;5.68;;;2.88;;
34212;SDS011;20477;51.390;8.102;2022-10-17T08:36:53;7.82;;;3.13;;
34212;SDS011;20477;51.390;8.102;2022-10-17T08:39:20;7.75;;;2.80;;
34212;SDS011;20477;51.390;8.102;2022-10-17T08:47:13;8.25;;;2.92;;
34212;SDS011;20477;51.390;8.102;2022-10-17T08:49:51;8.57;;;3.10;;
34212;SDS011;20477;51.390;8.102;2022-10-17T08:52:23;7.65;;;3.20;;
34212;SDS011;20477;51.390;8.102;2022-10-17T08:54:53;15.88;;;3.38;;
34212;SDS011;20477;51.390;8.102;2022-10-17T08:57:20;12.52;;;3.42;;
34212;SDS011;20477;51.390;8.102;2022-10-17T08:59:50;7.68;;;2.80;;
34212;SDS011;20477;51.390;8.102;2022-10-17T09:19:11;9.18;;;2.63;;
34212;SDS011;20477;51.390;8.102;2022-10-17T09:24:37;8.38;;;3.00;;
34212;SDS011;20477;51.390;8.102;2022-10-17T09:33:08;12.43;;;3.35;;
34212;SDS011;20477;51.390;8.102;2022-10-17T09:36:12;4.28;;;2.95;;
34212;SDS011;20477;51.390;8.102;2022-10-17T09:38:47;9.30;;;3.03;;
34212;SDS011;20477;51.390;8.102;2022-10-17T09:41:33;7.13;;;3.40;;
34212;SDS011;20477;51.390;8.102;2022-10-17T09:46:41;9.02;;;2.60;;
34212;SDS011;20477;51.390;8.102;2022-10-17T09:49:16;13.63;;;3.10;;
34212;SDS011;20477;51.390;8.102;2022-10-17T09:51:45;10.73;;;3.40;;
34212;SDS011;20477;51.390;8.102;2022-10-17T09:54:23;8.60;;;3.53;;
34212;SDS011;20477;51.390;8.102;2022-10-17T09:57:06;7.25;;;2.58;;
34212;SDS011;20477;51.390;8.102;2022-10-17T09:59:38;10.27;;;2.80;;
34212;SDS011;20477;51.390;8.102;2022-10-17T10:07:33;13.30;;;2.83;;
34212;SDS011;20477;51.390;8.102;2022-10-17T10:10:04;8.63;;;2.97;;
34212;SDS011;20477;51.390;8.102;2022-10-17T10:12:35;6.75;;;2.92;;
34212;SDS011;20477;51.390;8.102;2022-10-17T10:17:55;9.45;;;2.78;;
34212;SDS011;20477;51.390;8.102;2022-10-17T10:20:32;10.93;;;3.42;;
34212;SDS011;20477;51.390;8.102;2022-10-17T10:23:10;8.82;;;2.60;;
34212;SDS011;20477;51.390;8.102;2022-10-17T10:25:51;8.93;;;3.10;;
34212;SDS011;20477;51.390;8.102;2022-10-17T10:28:25;25.33;;;4.53;;
34212;SDS011;20477;51.390;8.102;2022-10-17T10:33:24;10.32;;;2.95;;
34212;SDS011;20477;51.390;8.102;2022-10-17T10:35:57;9.93;;;2.80;;
34212;SDS011;20477;51.390;8.102;2022-10-17T10:38:27;11.10;;;3.88;;
34212;SDS011;20477;51.390;8.102;2022-10-17T10:41:05;11.05;;;3.00;;
34212;SDS011;20477;51.390;8.102;2022-10-17T10:43:43;5.20;;;2.38;;
34212;SDS011;20477;51.390;8.102;2022-10-17T10:46:16;9.02;;;2.60;;
34212;SDS011;20477;51.390;8.102;2022-10-17T10:48:52;13.77;;;2.70;;
34212;SDS011;20477;51.390;8.102;2022-10-17T10:51:22;9.73;;;2.65;;
34212;SDS011;20477;51.390;8.102;2022-10-17T10:54:04;11.20;;;2.63;;
34212;SDS011;20477;51.390;8.102;2022-10-17T10:56:37;6.88;;;2.75;;
34212;SDS011;20477;51.390;8.102;2022-10-17T11:01:37;8.38;;;2.88;;
34212;SDS011;20477;51.390;8.102;2022-10-17T11:06:43;8.35;;;2.42;;
34212;SDS011;20477;51.390;8.102;2022-10-17T11:12:19;7.07;;;2.72;;
34212;SDS011;20477;51.390;8.102;2022-10-17T11:15:02;12.60;;;3.47;;
34212;SDS011;20477;51.390;8.102;2022-10-17T11:20:33;10.85;;;2.10;;
34212;SDS011;20477;51.390;8.102;2022-10-17T11:23:27;11.02;;;2.97;;
34212;SDS011;20477;51.390;8.102;2022-10-17T11:25:56;3.38;;;2.40;;
34212;SDS011;20477;51.390;8.102;2022-10-17T11:28:24;8.25;;;2.58;;
34212;SDS011;20477;51.390;8.102;2022-10-17T11:31:03;6.00;;;2.28;;
34212;SDS011;20477;51.390;8.102;2022-10-17T11:36:10;6.93;;;2.60;;
34212;SDS011;20477;51.390;8.102;2022-10-17T11:41:08;13.82;;;3.20;;
34212;SDS011;20477;51.390;8.102;2022-10-17T11:43:44;6.72;;;2.55;;
34212;SDS011;20477;51.390;8.102;2022-10-17T11:46:21;6.97;;;2.70;;
34212;SDS011;20477;51.390;8.102;2022-10-17T12:06:36;4.43;;;2.40;;
34212;SDS011;20477;51.390;8.102;2022-10-17T12:12:23;6.28;;;3.30;;
34212;SDS011;20477;51.390;8.102;2022-10-17T12:14:52;9.23;;;3.35;;
34212;SDS011;20477;51.390;8.102;2022-10-17T12:17:32;7.57;;;2.65;;
34212;SDS011;20477;51.390;8.102;2022-10-17T12:22:47;10.70;;;3.17;;
34212;SDS011;20477;51.390;8.102;2022-10-17T12:27:45;9.55;;;2.83;;
34212;SDS011;20477;51.390;8.102;2022-10-17T12:30:16;9.10;;;3.35;;
34212;SDS011;20477;51.390;8.102;2022-10-17T12:33:00;13.10;;;3.00;;
34212;SDS011;20477;51.390;8.102;2022-10-17T12:35:37;5.95;;;2.92;;
34212;SDS011;20477;51.390;8.102;2022-10-17T12:38:14;13.00;;;3.10;;
34212;SDS011;20477;51.390;8.102;2022-10-17T12:45:55;7.63;;;3.25;;
34212;SDS011;20477;51.390;8.102;2022-10-17T12:51:00;10.57;;;3.50;;
34212;SDS011;20477;51.390;8.102;2022-10-17T12:56:34;8.18;;;3.05;;
34212;SDS011;20477;51.390;8.102;2022-10-17T12:59:25;12.02;;;2.95;;
34212;SDS011;20477;51.390;8.102;2022-10-17T13:01:52;10.88;;;3.00;;
34212;SDS011;20477;51.390;8.102;2022-10-17T13:04:24;9.35;;;2.88;;
34212;SDS011;20477;51.390;8.102;2022-10-17T13:06:56;8.35;;;2.97;;
34212;SDS011;20477;51.390;8.102;2022-10-17T13:09:26;10.57;;;2.85;;
34212;SDS011;20477;51.390;8.102;2022-10-17T13:11:56;8.80;;;3.03;;
34212;SDS011;20477;51.390;8.102;2022-10-17T13:14:25;9.52;;;3.15;;
34212;SDS011;20477;51.390;8.102;2022-10-17T13:16:53;8.40;;;2.95;;
34212;SDS011;20477;51.390;8.102;2022-10-17T13:19:28;9.30;;;2.97;;
34212;SDS011;20477;51.390;8.102;2022-10-17T13:21:57;5.68;;;2.80;;
34212;SDS011;20477;51.390;8.102;2022-10-17T13:24:36;9.07;;;3.05;;
34212;SDS011;20477;51.390;8.102;2022-10-17T13:27:05;10.70;;;2.97;;
34212;SDS011;20477;51.390;8.102;2022-10-17T13:29:47;11.85;;;3.47;;
34212;SDS011;20477;51.390;8.102;2022-10-17T13:32:14;10.55;;;2.55;;
34212;SDS011;20477;51.390;8.102;2022-10-17T13:34:41;9.32;;;2.90;;
34212;SDS011;20477;51.390;8.102;2022-10-17T13:37:10;12.73;;;2.70;;
34212;SDS011;20477;51.390;8.102;2022-10-17T13:39:40;13.00;;;3.28;;
34212;SDS011;20477;51.390;8.102;2022-10-17T13:42:29;6.78;;;2.83;;
34212;SDS011;20477;51.390;8.102;2022-10-17T13:44:57;7.47;;;3.15;;
34212;SDS011;20477;51.390;8.102;2022-10-17T13:47:28;11.32;;;3.03;;
34212;SDS011;20477;51.390;8.102;2022-10-17T13:49:58;8.93;;;2.78;;
34212;SDS011;20477;51.390;8.102;2022-10-17T13:52:26;6.18;;;2.83;;
34212;SDS011;20477;51.390;8.102;2022-10-17T13:55:05;18.63;;;5.10;;
34212;SDS011;20477;51.390;8.102;2022-10-17T13:57:38;7.43;;;2.88;;
34212;SDS011;20477;51.390;8.102;2022-10-17T14:00:06;8.75;;;3.30;;
34212;SDS011;20477;51.390;8.102;2022-10-17T14:02:41;8.95;;;3.38;;
34212;SDS011;20477;51.390;8.102;2022-10-17T14:05:12;11.63;;;2.90;;
34212;SDS011;20477;51.390;8.102;2022-10-17T14:07:49;8.05;;;2.80;;
34212;SDS011;20477;51.390;8.102;2022-10-17T14:10:39;11.32;;;2.75;;
34212;SDS011;20477;51.390;8.102;2022-10-17T14:13:06;11.95;;;3.28;;
34212;SDS011;20477;51.390;8.102;2022-10-17T14:15:48;13.02;;;2.95;;
34212;SDS011;20477;51.390;8.102;2022-10-17T14:18:19;8.18;;;2.83;;
34212;SDS011;20477;51.390;8.102;2022-10-17T14:20:51;8.25;;;2.83;;
34212;SDS011;20477;51.390;8.102;2022-10-17T14:23:39;8.27;;;3.20;;
34212;SDS011;20477;51.390;8.102;2022-10-17T14:28:36;15.57;;;3.28;;
34212;SDS011;20477;51.390;8.102;2022-10-17T14:31:11;12.15;;;3.03;;
34212;SDS011;20477;51.390;8.102;2022-10-17T14:33:48;5.90;;;2.35;;
34212;SDS011;20477;51.390;8.102;2022-10-17T14:36:16;10.38;;;2.67;;
34212;SDS011;20477;51.390;8.102;2022-10-17T14:38:45;9.38;;;4.10;;
34212;SDS011;20477;51.390;8.102;2022-10-17T14:41:14;11.27;;;2.60;;
34212;SDS011;20477;51.390;8.102;2022-10-17T14:44:07;9.95;;;2.55;;
34212;SDS011;20477;51.390;8.102;2022-10-17T14:46:43;9.90;;;2.30;;
34212;SDS011;20477;51.390;8.102;2022-10-17T14:49:17;11.55;;;4.00;;
34212;SDS011;20477;51.390;8.102;2022-10-17T14:54:47;22.98;;;3.30;;
34212;SDS011;20477;51.390;8.102;2022-10-17T14:57:21;9.57;;;3.38;;
34212;SDS011;20477;51.390;8.102;2022-10-17T14:59:54;6.53;;;2.67;;
34212;SDS011;20477;51.390;8.102;2022-10-17T15:02:23;6.25;;;2.40;;
34212;SDS011;20477;51.390;8.102;2022-10-17T15:04:54;5.95;;;2.60;;
34212;SDS011;20477;51.390;8.102;2022-10-17T15:07:21;7.65;;;2.88;;
34212;SDS011;20477;51.390;8.102;2022-10-17T15:09:50;12.82;;;3.15;;
34212;SDS011;20477;51.390;8.102;2022-10-17T15:12:19;11.75;;;3.08;;
34212;SDS011;20477;51.390;8.102;2022-10-17T15:14:48;11.52;;;3.10;;
34212;SDS011;20477;51.390;8.102;2022-10-17T15:17:17;11.90;;;3.13;;
34212;SDS011;20477;51.390;8.102;2022-10-17T15:19:49;9.25;;;3.22;;
34212;SDS011;20477;51.390;8.102;2022-10-17T15:22:16;10.85;;;3.05;;
34212;SDS011;20477;51.390;8.102;2022-10-17T15:24:43;9.70;;;2.63;;
34212;SDS011;20477;51.390;8.102;2022-10-17T15:27:17;9.73;;;2.63;;
34212;SDS011;20477;51.390;8.102;2022-10-17T15:29:49;9.57;;;3.13;;
34212;SDS011;20477;51.390;8.102;2022-10-17T15:32:16;16.92;;;2.90;;
34212;SDS011;20477;51.390;8.102;2022-10-17T15:34:43;7.50;;;2.42;;
34212;SDS011;20477;51.390;8.102;2022-10-17T15:37:21;7.85;;;2.80;;
34212;SDS011;20477;51.390;8.102;2022-10-17T15:39:50;11.05;;;3.22;;
34212;SDS011;20477;51.390;8.102;2022-10-17T15:42:20;11.77;;;2.95;;
34212;SDS011;20477;51.390;8.102;2022-10-17T15:44:48;6.32;;;4.40;;
34212;SDS011;20477;51.390;8.102;2022-10-17T15:47:33;12.10;;;2.70;;
34212;SDS011;20477;51.390;8.102;2022-10-17T15:50:00;12.15;;;3.05;;
34212;SDS011;20477;51.390;8.102;2022-10-17T15:52:27;13.30;;;3.22;;
34212;SDS011;20477;51.390;8.102;2022-10-17T15:54:54;11.98;;;3.30;;
34212;SDS011;20477;51.390;8.102;2022-10-17T15:57:27;6.47;;;3.20;;
34212;SDS011;20477;51.390;8.102;2022-10-17T15:59:56;8.13;;;3.50;;
34212;SDS011;20477;51.390;8.102;2022-10-17T16:02:24;5.78;;;2.88;;
34212;SDS011;20477;51.390;8.102;2022-10-17T16:04:51;10.50;;;3.35;;
34212;SDS011;20477;51.390;8.102;2022-10-17T16:07:19;17.15;;;3.22;;
34212;SDS011;20477;51.390;8.102;2022-10-17T16:09:47;6.00;;;3.20;;
34212;SDS011;20477;51.390;8.102;2022-10-17T16:12:18;11.60;;;3.08;;
34212;SDS011;20477;51.390;8.102;2022-10-17T16:14:49;10.32;;;4.55;;
34212;SDS011;20477;51.390;8.102;2022-10-17T16:17:16;9.38;;;3.15;;
34212;SDS011;20477;51.390;8.102;2022-10-17T16:19:43;14.93;;;3.75;;
34212;SDS011;20477;51.390;8.102;2022-10-17T16:22:23;11.18;;;3.60;;
34212;SDS011;20477;51.390;8.102;2022-10-17T16:27:24;6.82;;;2.75;;
34212;SDS011;20477;51.390;8.102;2022-10-17T16:29:51;7.97;;;3.08;;
34212;SDS011;20477;51.390;8.102;2022-10-17T16:32:18;8.90;;;3.58;;
34212;SDS011;20477;51.390;8.102;2022-10-17T16:34:45;9.23;;;3.08;;
34212;SDS011;20477;51.390;8.102;2022-10-17T16:37:11;19.95;;;3.92;;
34212;SDS011;20477;51.390;8.102;2022-10-17T16:39:38;10.30;;;3.70;;
34212;SDS011;20477;51.390;8.102;2022-10-17T16:42:05;11.77;;;3.63;;
34212;SDS011;20477;51.390;8.102;2022-10-17T16:44:32;11.57;;;4.72;;
34212;SDS011;20477;51.390;8.102;2022-10-17T16:46:59;17.25;;;4.80;;
34212;SDS011;20477;51.390;8.102;2022-10-17T16:49:26;14.18;;;3.92;;
34212;SDS011;20477;51.390;8.102;2022-10-17T16:51:53;18.98;;;3.75;;
34212;SDS011;20477;51.390;8.102;2022-10-17T16:54:19;17.75;;;3.65;;
34212;SDS011;20477;51.390;8.102;2022-10-17T16:56:46;10.40;;;3.53;;
34212;SDS011;20477;51.390;8.102;2022-10-17T16:59:15;11.48;;;3.78;;
34212;SDS011;20477;51.390;8.102;2022-10-17T17:01:42;12.15;;;3.65;;
34212;SDS011;20477;51.390;8.102;2022-10-17T17:04:09;10.82;;;4.15;;
34212;SDS011;20477;51.390;8.102;2022-10-17T17:06:35;14.93;;;3.75;;
34212;SDS011;20477;51.390;8.102;2022-10-17T17:09:02;16.15;;;4.80;;
34212;SDS011;20477;51.390;8.102;2022-10-17T17:11:29;15.50;;;4.50;;
34212;SDS011;20477;51.390;8.102;2022-10-17T17:13:57;13.48;;;4.20;;
34212;SDS011;20477;51.390;8.102;2022-10-17T17:16:26;18.40;;;4.55;;